createdAt,value
2023-05-24T00:01:25.677Z,8.00
2023-05-24T00:05:31.062Z,10.20
2023-05-24T00:09:33.213Z,9.88
2023-05-24T00:13:35.060Z,9.57
2023-05-24T00:17:41.178Z,9.18
2023-05-24T00:21:43.269Z,15.03
2023-05-24T00:25:45.037Z,6.85
2023-05-24T00:29:46.832Z,8.80
2023-05-24T00:33:48.635Z,11.07
2023-05-24T00:37:50.713Z,12.32
2023-05-24T00:41:52.666Z,11.05
2023-05-24T00:46:15.304Z,10.00
2023-05-24T00:50:17.536Z,9.57
2023-05-24T00:54:19.346Z,9.32
2023-05-24T00:58:22.832Z,6.55
2023-05-24T01:02:25.577Z,13.38
2023-05-24T01:06:28.801Z,6.20
2023-05-24T01:10:54.669Z,6.40
2023-05-24T01:15:10.315Z,9.25
2023-05-24T01:19:54.175Z,6.50
2023-05-24T01:24:10.677Z,8.85
2023-05-24T01:28:13.052Z,9.02
2023-05-24T01:32:15.000Z,6.57
2023-05-24T01:36:16.809Z,10.02
2023-05-24T01:40:19.085Z,8.50
2023-05-24T01:44:36.450Z,8.20
2023-05-24T01:49:24.893Z,10.73
2023-05-24T01:53:32.786Z,4.82
2023-05-24T01:57:35.387Z,9.40
2023-05-24T02:01:37.390Z,7.62
2023-05-24T02:05:39.284Z,9.18
2023-05-24T02:09:41.128Z,6.47
2023-05-24T02:13:42.981Z,10.35
2023-05-24T02:17:45.982Z,6.87
2023-05-24T02:21:47.844Z,5.68
2023-05-24T02:25:49.654Z,5.75
2023-05-24T02:29:52.787Z,5.65
2023-05-24T02:33:58.397Z,8.38
2023-05-24T02:38:01.506Z,9.80
2023-05-24T02:42:05.740Z,8.90
2023-05-24T02:46:07.577Z,13.52
2023-05-24T02:50:10.528Z,10.00
2023-05-24T02:54:12.280Z,10.80
2023-05-24T02:58:14.072Z,10.48
2023-05-24T03:02:15.946Z,6.25
2023-05-24T03:06:17.826Z,5.53
2023-05-24T03:10:19.607Z,7.75
2023-05-24T03:14:23.889Z,9.77
2023-05-24T03:18:25.852Z,7.28
2023-05-24T03:22:27.639Z,10.25
2023-05-24T03:26:29.446Z,6.90
2023-05-24T03:30:31.312Z,6.80
2023-05-24T03:34:33.124Z,12.52
2023-05-24T03:38:34.956Z,7.05
2023-05-24T03:42:36.884Z,6.47
2023-05-24T03:46:38.874Z,8.10
2023-05-24T03:50:41.038Z,9.25
2023-05-24T03:54:43.143Z,8.10
2023-05-24T03:58:44.955Z,4.70
2023-05-24T04:02:46.885Z,5.80
2023-05-24T04:06:49.669Z,6.50
2023-05-24T04:10:51.449Z,6.45
2023-05-24T04:14:53.334Z,5.68
2023-05-24T04:18:56.329Z,5.70
2023-05-24T04:22:59.157Z,8.10
2023-05-24T04:27:01.090Z,4.28
2023-05-24T04:31:03.332Z,8.40
2023-05-24T04:35:05.553Z,6.53
2023-05-24T04:39:07.294Z,7.82
2023-05-24T04:43:10.619Z,6.00
2023-05-24T04:47:12.863Z,5.62
2023-05-24T04:51:14.643Z,6.07
2023-05-24T04:55:16.469Z,7.15
2023-05-24T04:59:18.245Z,6.53
2023-05-24T05:03:20.118Z,7.43
2023-05-24T05:07:22.611Z,14.48
2023-05-24T05:11:24.312Z,7.62
2023-05-24T05:15:26.120Z,7.25
2023-05-24T05:19:27.827Z,9.50
2023-05-24T05:23:30.355Z,8.45
2023-05-24T05:27:32.062Z,10.77
2023-05-24T05:31:33.814Z,7.60
2023-05-24T05:35:35.492Z,11.45
2023-05-24T05:39:37.361Z,17.65
2023-05-24T05:43:39.225Z,22.25
2023-05-24T05:47:41.152Z,14.70
2023-05-24T05:51:42.958Z,16.70
2023-05-24T05:55:44.678Z,17.52
2023-05-24T05:59:46.387Z,18.83
2023-05-24T06:03:48.310Z,13.80
2023-05-24T06:07:50.357Z,18.40
2023-05-24T06:11:52.174Z,15.73
2023-05-24T06:15:59.062Z,14.87
2023-05-24T06:20:01.277Z,20.60
2023-05-24T06:24:04.100Z,13.25
2023-05-24T06:28:05.924Z,22.75
2023-05-24T06:32:07.807Z,16.60
2023-05-24T06:36:09.749Z,23.50
2023-05-24T06:40:12.882Z,16.77
2023-05-24T06:44:14.790Z,18.77
2023-05-24T06:48:17.002Z,19.23
2023-05-24T06:52:18.949Z,20.25
2023-05-24T06:56:21.418Z,14.20
2023-05-24T07:00:23.375Z,21.35
2023-05-24T07:04:25.428Z,19.33
2023-05-24T07:08:27.819Z,23.12
2023-05-24T07:12:29.622Z,25.85
2023-05-24T07:16:31.890Z,17.62
2023-05-24T07:20:33.791Z,16.55
2023-05-24T07:24:35.844Z,20.75
2023-05-24T07:28:38.814Z,14.95
2023-05-24T07:32:40.775Z,16.90
2023-05-24T07:36:42.653Z,17.67
2023-05-24T07:40:44.738Z,20.55
2023-05-24T07:44:46.796Z,22.52
2023-05-24T07:48:48.866Z,24.60
2023-05-24T07:52:51.310Z,15.13
2023-05-24T07:56:53.202Z,15.90
2023-05-24T08:00:55.129Z,24.63
2023-05-24T08:04:56.926Z,17.10
2023-05-24T08:08:58.993Z,15.63
2023-05-24T08:13:01.055Z,18.55
2023-05-24T08:17:02.987Z,19.95
2023-05-24T08:21:04.894Z,17.33
2023-05-24T08:25:07.042Z,12.70
2023-05-24T08:29:09.152Z,12.45
2023-05-24T08:33:11.536Z,18.42
2023-05-24T08:37:16.298Z,13.40
2023-05-24T08:41:18.223Z,13.55
2023-05-24T08:45:21.788Z,20.25
2023-05-24T08:49:24.610Z,18.83
2023-05-24T08:53:27.439Z,22.27
2023-05-24T08:57:31.168Z,22.13
2023-05-24T09:01:34.762Z,22.67
2023-05-24T09:05:41.505Z,15.32
2023-05-24T09:09:47.902Z,12.35
2023-05-24T09:13:49.815Z,18.85
2023-05-24T09:17:51.693Z,13.65
2023-05-24T09:21:54.684Z,11.25
2023-05-24T09:25:56.987Z,9.27
2023-05-24T09:29:58.795Z,11.02
2023-05-24T09:34:01.182Z,12.40
2023-05-24T09:38:03.907Z,10.90
2023-05-24T09:42:06.199Z,16.60
2023-05-24T09:46:08.010Z,15.95
2023-05-24T09:50:14.495Z,15.10
2023-05-24T09:54:17.413Z,13.90
2023-05-24T09:58:20.135Z,11.12
2023-05-24T10:02:23.824Z,12.10
2023-05-24T10:06:25.716Z,13.77
2023-05-24T10:10:29.394Z,18.90
2023-05-24T10:14:36.180Z,14.98
2023-05-24T10:18:38.593Z,14.65
2023-05-24T10:22:47.216Z,14.75
2023-05-24T10:26:50.606Z,11.93
2023-05-24T10:31:17.065Z,13.13
2023-05-24T10:35:20.240Z,15.48
2023-05-24T10:39:22.916Z,14.25
2023-05-24T10:43:25.827Z,12.35
2023-05-24T10:47:30.344Z,12.37
2023-05-24T10:51:38.603Z,13.70
2023-05-24T10:55:57.300Z,13.10
2023-05-24T11:00:48.263Z,10.82
2023-05-24T11:04:49.010Z,10.07
2023-05-24T11:08:51.107Z,11.50
2023-05-24T11:13:02.624Z,12.57
2023-05-24T11:17:05.600Z,11.18
2023-05-24T11:21:07.916Z,9.38
2023-05-24T11:25:10.477Z,14.85
2023-05-24T11:29:17.912Z,13.88
2023-05-24T11:33:23.361Z,11.90
2023-05-24T11:37:38.389Z,10.45
2023-05-24T11:41:47.867Z,13.80
2023-05-24T11:45:51.985Z,12.20
2023-05-24T11:49:53.755Z,12.40
2023-05-24T11:54:00.131Z,14.77
2023-05-24T11:58:06.039Z,9.10
2023-05-24T12:02:08.859Z,11.90
2023-05-24T12:06:10.970Z,15.88
2023-05-24T12:10:13.715Z,9.43
2023-05-24T12:14:17.986Z,9.52
2023-05-24T12:18:23.836Z,13.07
2023-05-24T12:22:29.781Z,12.75
2023-05-24T12:26:31.532Z,13.55
2023-05-24T12:30:33.320Z,11.15
2023-05-24T12:34:35.054Z,8.98
2023-05-24T12:38:37.167Z,8.80
2023-05-24T12:42:39.056Z,12.23
2023-05-24T12:46:40.829Z,9.05
2023-05-24T12:50:42.719Z,11.32
2023-05-24T12:54:44.650Z,8.82
2023-05-24T12:58:47.344Z,10.30
2023-05-24T13:02:49.888Z,14.38
2023-05-24T13:06:51.669Z,18.87
2023-05-24T13:10:53.809Z,9.77
2023-05-24T13:14:55.670Z,9.40
2023-05-24T13:18:57.531Z,11.82
2023-05-24T13:22:59.250Z,11.25
2023-05-24T13:27:01.458Z,9.90
2023-05-24T13:31:03.703Z,10.27
2023-05-24T13:35:08.305Z,11.50
2023-05-24T13:39:15.425Z,16.05
2023-05-24T13:43:18.198Z,12.20
2023-05-24T13:47:41.486Z,16.12
2023-05-24T13:51:42.718Z,15.27
2023-05-24T13:55:44.515Z,11.93
2023-05-24T13:59:46.292Z,14.82
2023-05-24T14:03:48.120Z,12.73
2023-05-24T14:07:50.249Z,16.60
2023-05-24T14:11:53.013Z,10.32
2023-05-24T14:15:54.847Z,12.13
2023-05-24T14:19:56.803Z,11.60
2023-05-24T14:23:58.525Z,14.60
2023-05-24T14:28:00.361Z,10.90
2023-05-24T14:32:02.216Z,12.07
2023-05-24T14:36:04.207Z,16.37
2023-05-24T14:40:06.879Z,12.15
2023-05-24T14:44:09.045Z,11.57
2023-05-24T14:48:11.852Z,12.63
2023-05-24T14:52:13.965Z,16.48
2023-05-24T14:56:15.978Z,15.48
2023-05-24T15:00:21.505Z,21.65
2023-05-24T15:04:24.495Z,10.63
2023-05-24T15:08:26.343Z,11.65
2023-05-24T15:12:28.114Z,13.02
2023-05-24T15:16:29.956Z,18.05
2023-05-24T15:20:35.732Z,14.07
2023-05-24T15:24:38.248Z,14.63
2023-05-24T15:28:40.092Z,15.45
2023-05-24T15:32:41.924Z,15.60
2023-05-24T15:36:45.707Z,14.13
2023-05-24T15:40:47.529Z,13.90
2023-05-24T15:44:49.308Z,12.23
2023-05-24T15:48:51.077Z,10.45
2023-05-24T15:52:52.821Z,11.35
2023-05-24T15:56:54.559Z,16.40
2023-05-24T16:00:56.313Z,15.07
2023-05-24T16:04:58.059Z,15.93
2023-05-24T16:08:59.787Z,13.18
2023-05-24T16:13:01.545Z,14.32
2023-05-24T16:17:06.325Z,13.98
2023-05-24T16:21:08.068Z,14.18
2023-05-24T16:25:10.322Z,15.02
2023-05-24T16:29:14.813Z,12.40
2023-05-24T16:33:16.551Z,17.17
2023-05-24T16:37:18.315Z,16.48
2023-05-24T16:41:20.152Z,12.10
2023-05-24T16:45:21.921Z,14.50
2023-05-24T16:49:24.008Z,16.48
2023-05-24T16:53:27.068Z,13.82
2023-05-24T16:57:29.158Z,13.43
2023-05-24T17:01:31.396Z,10.68
2023-05-24T17:05:33.153Z,14.27
2023-05-24T17:09:34.916Z,13.77
2023-05-24T17:13:36.670Z,10.40
2023-05-24T17:17:38.476Z,9.88
2023-05-24T17:21:40.316Z,19.08
2023-05-24T17:25:41.991Z,17.20
2023-05-24T17:29:44.799Z,12.02
2023-05-24T17:33:46.603Z,12.37
2023-05-24T17:37:48.318Z,13.00
2023-05-24T17:41:50.311Z,7.62
2023-05-24T17:45:52.546Z,13.77
2023-05-24T17:49:54.326Z,14.13
2023-05-24T17:53:56.189Z,14.57
2023-05-24T17:57:57.934Z,12.80
2023-05-24T18:01:59.677Z,11.50
2023-05-24T18:06:03.741Z,13.43
2023-05-24T18:10:06.637Z,11.40
2023-05-24T18:14:08.463Z,15.68
2023-05-24T18:18:10.500Z,13.15
2023-05-24T18:22:12.350Z,12.27
2023-05-24T18:26:14.126Z,14.38
2023-05-24T18:30:16.620Z,9.98
2023-05-24T18:34:18.344Z,9.50
2023-05-24T18:38:20.069Z,10.07
2023-05-24T18:42:21.821Z,10.75
2023-05-24T18:46:25.811Z,11.95
2023-05-24T18:50:27.578Z,11.27
2023-05-24T18:54:30.250Z,12.18
2023-05-24T18:58:32.140Z,13.05
2023-05-24T19:02:38.896Z,12.13
2023-05-24T19:06:40.948Z,10.95
2023-05-24T19:10:42.626Z,10.43
2023-05-24T19:14:44.460Z,11.07
2023-05-24T19:18:46.352Z,7.45
2023-05-24T19:22:48.097Z,9.95
2023-05-24T19:26:52.949Z,8.70
2023-05-24T19:30:54.758Z,13.25
2023-05-24T19:34:56.791Z,10.45
2023-05-24T19:38:59.116Z,10.77
2023-05-24T19:43:01.230Z,19.55
2023-05-24T19:47:03.199Z,12.65
2023-05-24T19:51:05.036Z,13.00
2023-05-24T19:55:08.159Z,13.82
2023-05-24T19:59:09.963Z,9.55
2023-05-24T20:03:11.917Z,12.50
2023-05-24T20:07:14.633Z,10.52
2023-05-24T20:11:16.400Z,9.80
2023-05-24T20:15:18.239Z,11.35
2023-05-24T20:19:21.438Z,11.10
2023-05-24T20:23:27.312Z,15.93
2023-05-24T20:27:29.096Z,14.85
2023-05-24T20:31:30.934Z,13.30
2023-05-24T20:35:32.684Z,11.25
2023-05-24T20:39:34.523Z,12.57
2023-05-24T20:43:36.270Z,9.10
2023-05-24T20:47:38.028Z,11.18
2023-05-24T20:51:39.771Z,11.63
2023-05-24T20:55:41.837Z,14.55
2023-05-24T20:59:43.686Z,10.85
2023-05-24T21:03:45.630Z,12.00
2023-05-24T21:07:47.497Z,9.80
2023-05-24T21:11:49.229Z,13.43
2023-05-24T21:15:51.417Z,8.13
2023-05-24T21:19:53.216Z,9.02
2023-05-24T21:23:55.562Z,12.75
2023-05-24T21:27:57.331Z,10.82
2023-05-24T21:31:59.092Z,12.55
2023-05-24T21:36:02.996Z,7.87
2023-05-24T21:40:06.214Z,9.60
2023-05-24T21:44:09.084Z,10.20
2023-05-24T21:48:10.935Z,11.93
2023-05-24T21:52:12.805Z,10.90
2023-05-24T21:56:14.629Z,11.10
2023-05-24T22:00:16.922Z,8.25
2023-05-24T22:04:18.830Z,9.07
2023-05-24T22:08:20.667Z,11.88
2023-05-24T22:12:22.499Z,9.77
2023-05-24T22:16:24.402Z,11.38
2023-05-24T22:20:27.717Z,14.13
2023-05-24T22:24:29.551Z,8.05
2023-05-24T22:29:00.767Z,12.40
2023-05-24T22:33:02.898Z,12.43
2023-05-24T22:37:05.076Z,8.15
2023-05-24T22:41:07.013Z,11.12
2023-05-24T22:45:09.662Z,8.27
2023-05-24T22:49:13.388Z,11.55
2023-05-24T22:53:17.141Z,9.07
2023-05-24T22:57:21.617Z,11.57
2023-05-24T23:01:23.608Z,9.43
2023-05-24T23:05:25.420Z,9.77
2023-05-24T23:09:34.496Z,9.93
2023-05-24T23:13:37.764Z,12.57
2023-05-24T23:17:39.641Z,13.23
2023-05-24T23:21:42.127Z,12.27
2023-05-24T23:25:44.067Z,10.02
2023-05-24T23:29:46.192Z,12.93
2023-05-24T23:33:48.007Z,15.43
2023-05-24T23:37:49.914Z,12.55
2023-05-24T23:41:51.761Z,11.68
2023-05-24T23:45:53.611Z,11.50
2023-05-24T23:49:55.562Z,10.77
2023-05-24T23:53:57.318Z,11.35
2023-05-24T23:58:00.293Z,13.77
